Time;durP1;ratioP1;P1;durP2;ratioP2;P2;SDS_P1;SDS_P2;PMS_P1;PMS_P2;Temp;Humidity;BMP_temperature;BMP_pressure;BME280_temperature;BME280_humidity;BME280_pressure;Samples;Min_cycle;Max_cycle;Signal;HPM_P1;HPM_P2
2021/10/30 00:00:18;;;;;;;34.90;14.40;;;;;;;4.08;64.78;100270.88;112752;1198;24065;-55
2021/10/30 00:03:07;;;;;;;35.80;15.10;;;;;;;4.05;64.99;100269.38;112806;1199;22562;-56
2021/10/30 00:05:35;;;;;;;37.70;15.80;;;;;;;4.04;65.04;100265.84;112928;1193;25440;-56
2021/10/30 00:08:04;;;;;;;33.30;16.20;;;;;;;4.05;65.14;100270.41;112653;1185;25114;-53
2021/10/30 00:10:32;;;;;;;36.10;14.30;;;;;;;4.06;65.24;100271.71;112968;1198;24092;-53
2021/10/30 00:13:02;;;;;;;36.40;14.70;;;;;;;4.07;65.35;100269.31;112697;1200;24214;-56
2021/10/30 00:15:30;;;;;;;36.90;14.10;;;;;;;4.08;65.29;100275.20;112946;1198;22580;-56
2021/10/30 00:17:58;;;;;;;37.30;14.50;;;;;;;4.07;65.36;100274.20;112837;1199;22433;-53
2021/10/30 00:20:26;;;;;;;33.10;14.50;;;;;;;4.07;65.42;100280.14;112750;1198;24094;-55
2021/10/30 00:22:54;;;;;;;30.30;13.60;;;;;;;4.06;65.44;100279.94;112879;1199;22500;-53
2021/10/30 00:25:22;;;;;;;31.60;14.40;;;;;;;4.01;65.57;100281.95;112779;1199;24114;-54
2021/10/30 00:27:51;;;;;;;36.10;16.70;;;;;;;3.97;65.69;100278.58;112913;1199;22443;-53
2021/10/30 00:30:20;;;;;;;32.80;14.30;;;;;;;3.91;65.85;100285.67;112887;1192;22883;-56
2021/10/30 00:32:48;;;;;;;33.10;13.70;;;;;;;3.86;65.95;100278.46;112775;1199;22489;-55
2021/10/30 00:35:16;;;;;;;35.30;13.70;;;;;;;3.77;66.04;100282.71;112859;1198;22553;-56
2021/10/30 00:37:44;;;;;;;34.90;15.40;;;;;;;3.63;65.86;100286.92;112826;1199;22455;-53
2021/10/30 00:40:16;;;;;;;34.00;15.20;;;;;;;3.56;65.92;100291.42;112752;1192;25239;-55
2021/10/30 00:42:44;;;;;;;39.10;15.10;;;;;;;3.47;65.96;100285.33;113119;1198;25022;-55
2021/10/30 00:45:12;;;;;;;40.90;13.70;;;;;;;3.36;66.35;100293.16;112877;1199;24080;-55
2021/10/30 00:47:40;;;;;;;33.90;13.80;;;;;;;3.30;66.64;100295.56;112729;1199;25115;-54
2021/10/30 00:50:10;;;;;;;34.30;14.00;;;;;;;3.26;66.84;100297.92;112593;1199;22422;-56
2021/10/30 00:52:41;;;;;;;31.20;13.30;;;;;;;3.25;67.01;100286.60;112894;1199;24065;-55
2021/10/30 00:55:10;;;;;;;31.40;12.40;;;;;;;3.25;66.87;100288.50;112974;1192;22487;-55
2021/10/30 00:57:40;;;;;;;31.20;12.90;;;;;;;3.22;67.08;100281.80;112911;1199;25149;-54
2021/10/30 01:00:11;;;;;;;28.90;11.60;;;;;;;3.20;67.38;100283.80;113033;1199;25315;-55
2021/10/30 01:02:40;;;;;;;33.20;13.50;;;;;;;3.21;67.70;100284.11;112897;1193;25235;-54
2021/10/30 01:05:09;;;;;;;35.40;13.10;;;;;;;3.24;67.51;100286.55;113026;1184;26414;-55
2021/10/30 01:07:38;;;;;;;33.40;14.10;;;;;;;3.23;67.26;100290.69;112968;1199;24053;-53
2021/10/30 01:10:07;;;;;;;30.40;13.30;;;;;;;3.19;67.19;100293.37;113055;1192;22892;-55
2021/10/30 01:12:36;;;;;;;30.30;12.50;;;;;;;3.16;67.51;100293.76;112999;1198;25339;-56
2021/10/30 01:15:08;;;;;;;35.30;13.90;;;;;;;3.14;67.75;100295.85;112907;1199;25147;-54
2021/10/30 01:17:36;;;;;;;30.60;13.30;;;;;;;3.15;67.95;100300.48;113023;1198;24193;-55
2021/10/30 01:20:06;;;;;;;35.70;14.10;;;;;;;3.13;67.91;100295.08;112786;1199;22605;-56
2021/10/30 01:22:35;;;;;;;33.00;13.20;;;;;;;3.15;67.74;100296.93;113004;1184;22575;-54
2021/10/30 01:25:06;;;;;;;32.30;13.60;;;;;;;3.17;67.65;100290.81;113096;1199;22434;-56
2021/10/30 01:27:34;;;;;;;37.70;14.80;;;;;;;3.16;67.50;100290.85;113131;1198;25068;-54
2021/10/30 01:30:02;;;;;;;34.30;14.00;;;;;;;3.13;67.41;100288.85;112892;1192;22552;-55
2021/10/30 01:32:30;;;;;;;33.50;15.00;;;;;;;3.12;67.64;100284.23;113158;1199;24113;-53
2021/10/30 01:34:58;;;;;;;30.50;12.90;;;;;;;3.10;67.64;100286.48;112927;1198;24215;-56
2021/10/30 01:37:26;;;;;;;30.20;12.60;;;;;;;3.07;67.87;100279.38;112959;1199;22620;-56
2021/10/30 01:39:54;;;;;;;31.60;13.50;;;;;;;3.07;67.97;100283.08;113012;1199;22440;-56
2021/10/30 01:42:22;;;;;;;33.70;13.50;;;;;;;3.09;68.08;100282.95;112907;1199;24295;-52
2021/10/30 01:44:50;;;;;;;32.70;13.40;;;;;;;3.10;68.22;100279.14;112858;1198;22456;-54
2021/10/30 01:47:18;;;;;;;31.90;13.20;;;;;;;3.09;68.21;100278.14;112922;1192;25172;-54
2021/10/30 01:49:47;;;;;;;34.50;14.30;;;;;;;3.07;68.24;100273.31;112871;1199;22454;-56
2021/10/30 01:52:15;;;;;;;39.00;14.00;;;;;;;3.05;68.26;100269.73;112907;1199;22553;-54
2021/10/30 01:54:43;;;;;;;30.10;12.60;;;;;;;3.00;68.30;100269.52;112908;1199;22425;-55
2021/10/30 01:57:11;;;;;;;30.90;12.90;;;;;;;2.99;68.46;100273.64;112841;1199;24093;-56
2021/10/30 01:59:39;;;;;;;32.30;12.50;;;;;;;2.98;68.46;100271.77;112952;1199;22432;-55
2021/10/30 02:02:09;;;;;;;30.80;13.70;;;;;;;2.98;68.48;100272.27;112974;1193;22434;-55
2021/10/30 02:04:37;;;;;;;28.70;13.00;;;;;;;2.96;68.48;100268.59;112935;1199;22460;-54
2021/10/30 02:07:05;;;;;;;34.50;13.80;;;;;;;2.91;68.53;100262.31;112764;1198;22450;-55
2021/10/30 02:09:35;;;;;;;31.20;13.50;;;;;;;2.87;68.58;100259.95;112842;1199;22481;-56
2021/10/30 02:12:04;;;;;;;33.20;14.00;;;;;;;2.85;68.76;100257.55;113012;1199;26213;-54
2021/10/30 02:14:32;;;;;;;38.60;14.90;;;;;;;2.83;68.87;100258.39;112996;1199;25367;-55
2021/10/30 02:17:00;;;;;;;35.10;15.50;;;;;;;2.82;68.82;100251.02;112858;1192;24132;-53
2021/10/30 02:19:28;;;;;;;36.30;14.50;;;;;;;2.78;68.78;100255.67;112782;1192;22576;-56
2021/10/30 02:21:56;;;;;;;38.10;16.40;;;;;;;2.74;68.79;100256.61;112707;1199;25068;-55
2021/10/30 02:24:24;;;;;;;36.80;16.20;;;;;;;2.69;68.76;100257.58;112843;1199;22555;-55
2021/10/30 02:26:52;;;;;;;32.80;13.50;;;;;;;2.63;68.73;100259.19;112746;1199;25126;-54
2021/10/30 02:29:21;;;;;;;37.00;15.20;;;;;;;2.60;68.75;100258.95;112913;1198;22455;-55
2021/10/30 02:31:49;;;;;;;33.70;15.90;;;;;;;2.57;68.78;100259.80;112748;1199;22688;-55
2021/10/30 02:34:18;;;;;;;35.40;15.50;;;;;;;2.51;68.89;100259.27;112832;1198;25139;-56
2021/10/30 02:36:47;;;;;;;34.90;15.40;;;;;;;2.44;68.99;100257.73;112940;1184;24044;-54
2021/10/30 02:39:16;;;;;;;36.50;16.10;;;;;;;2.42;68.99;100259.86;112961;1199;22579;-53
2021/10/30 02:41:44;;;;;;;35.00;15.30;;;;;;;2.36;68.99;100252.95;112704;1198;24231;-51
2021/10/30 02:44:12;;;;;;;36.20;16.20;;;;;;;2.32;68.94;100255.16;112866;1198;22446;-55
2021/10/30 02:46:41;;;;;;;35.20;15.70;;;;;;;2.28;68.99;100249.49;113373;1191;24459;-58
2021/10/30 02:49:09;;;;;;;37.20;16.80;;;;;;;2.26;69.12;100240.50;113081;1199;26241;-57
2021/10/30 02:51:37;;;;;;;37.10;16.70;;;;;;;2.21;68.95;100238.39;112774;1199;22444;-52
2021/10/30 02:54:06;;;;;;;37.50;15.90;;;;;;;2.17;68.99;100238.23;112901;1192;24384;-53
2021/10/30 02:56:34;;;;;;;36.40;16.20;;;;;;;2.14;69.05;100239.46;112688;1192;22445;-55
2021/10/30 02:59:02;;;;;;;38.10;15.70;;;;;;;2.09;69.27;100238.84;112816;1198;25255;-56
2021/10/30 03:01:30;;;;;;;35.20;16.20;;;;;;;2.05;69.20;100239.09;112749;1199;22550;-57
2021/10/30 03:03:58;;;;;;;43.30;17.50;;;;;;;2.01;69.18;100244.81;112788;1196;25443;-53
2021/10/30 03:06:26;;;;;;;39.60;17.00;;;;;;;1.95;69.25;100244.45;112975;1199;25133;-56
2021/10/30 03:08:54;;;;;;;37.00;17.90;;;;;;;1.92;69.36;100244.66;112721;1199;22444;-53
2021/10/30 03:11:23;;;;;;;37.70;17.00;;;;;;;1.89;69.67;100245.98;112871;1199;24063;-55
2021/10/30 03:13:51;;;;;;;35.20;16.60;;;;;;;1.85;69.67;100251.09;112929;1192;22484;-53
2021/10/30 03:16:18;;;;;;;34.10;16.10;;;;;;;1.79;69.72;100251.09;112787;1198;22764;-55
2021/10/30 03:18:48;;;;;;;32.80;14.60;;;;;;;1.75;69.70;100249.60;112846;1199;25306;-54
2021/10/30 03:21:16;;;;;;;38.60;17.00;;;;;;;1.71;69.64;100246.05;113057;1198;22890;-56
2021/10/30 03:23:44;;;;;;;41.10;15.30;;;;;;;1.67;69.53;100241.80;112836;1199;22444;-56
2021/10/30 03:26:12;;;;;;;35.90;15.80;;;;;;;1.61;69.62;100241.48;112812;1199;25244;-54
2021/10/30 03:28:40;;;;;;;38.60;15.50;;;;;;;1.57;69.65;100243.20;112824;1199;22718;-54
2021/10/30 03:31:08;;;;;;;38.10;16.60;;;;;;;1.55;69.72;100241.98;112849;1199;24960;-55
2021/10/30 03:33:37;;;;;;;35.90;18.00;;;;;;;1.55;69.93;100239.33;112823;1198;22444;-53
2021/10/30 03:36:05;;;;;;;43.10;18.50;;;;;;;1.53;69.96;100239.34;112792;1199;22452;-55
2021/10/30 03:38:34;;;;;;;44.90;21.10;;;;;;;1.50;69.97;100241.69;112891;1199;23785;-54
2021/10/30 03:41:02;;;;;;;43.20;20.50;;;;;;;1.47;70.13;100245.58;112870;1199;22502;-53
2021/10/30 03:43:31;;;;;;;43.40;18.60;;;;;;;1.46;70.14;100246.30;112961;1198;25333;-53
2021/10/30 03:45:59;;;;;;;47.30;22.40;;;;;;;1.43;70.17;100246.73;112826;1199;22439;-54
2021/10/30 03:48:27;;;;;;;36.20;18.20;;;;;;;1.42;70.40;100246.52;112884;1199;22560;-53
2021/10/30 03:50:55;;;;;;;38.70;18.20;;;;;;;1.39;70.34;100247.04;112854;1184;24277;-53
2021/10/30 03:53:23;;;;;;;43.60;19.20;;;;;;;1.33;70.32;100238.80;112754;1199;24069;-54
2021/10/30 03:55:51;;;;;;;43.30;18.10;;;;;;;1.29;70.31;100238.40;113019;1192;24559;-55
2021/10/30 03:58:19;;;;;;;42.30;19.90;;;;;;;1.27;70.35;100233.56;112800;1198;22497;-55
2021/10/30 04:00:47;;;;;;;40.70;18.60;;;;;;;1.26;70.31;100232.08;112866;1199;22446;-54
2021/10/30 04:03:16;;;;;;;40.30;18.90;;;;;;;1.21;70.38;100231.76;112855;1198;25129;-56
2021/10/30 04:05:44;;;;;;;40.70;19.60;;;;;;;1.17;70.46;100232.84;112878;1198;24069;-53
2021/10/30 04:08:17;;;;;;;37.70;18.40;;;;;;;1.16;70.51;100230.89;112836;1198;22907;-54
2021/10/30 04:10:46;;;;;;;39.60;20.00;;;;;;;1.12;70.43;100230.55;112819;1199;22494;-57
2021/10/30 04:13:14;;;;;;;43.50;19.30;;;;;;;1.09;70.53;100231.23;112796;1199;22558;-53
2021/10/30 04:15:42;;;;;;;42.30;19.20;;;;;;;1.09;70.68;100226.67;112825;1199;22458;-53
2021/10/30 04:18:10;;;;;;;39.20;19.30;;;;;;;1.07;70.66;100228.35;112870;1199;22510;-55
2021/10/30 04:20:38;;;;;;;35.00;16.20;;;;;;;1.04;70.69;100221.02;112760;1199;25360;-53
2021/10/30 04:23:06;;;;;;;40.20;17.30;;;;;;;1.03;70.71;100220.96;112808;1199;25156;-53
2021/10/30 04:25:34;;;;;;;38.50;16.80;;;;;;;1.00;70.69;100216.30;112917;1192;22439;-53
2021/10/30 04:28:03;;;;;;;38.80;15.40;;;;;;;0.98;70.71;100217.02;112841;1197;22644;-55
2021/10/30 04:30:31;;;;;;;38.20;16.40;;;;;;;0.95;70.65;100214.88;112985;1199;23618;-55
2021/10/30 04:33:00;;;;;;;40.00;16.50;;;;;;;0.93;70.72;100213.57;112870;1192;22933;-55
2021/10/30 04:35:28;;;;;;;34.90;14.90;;;;;;;0.90;70.68;100212.11;113003;1199;25149;-53
2021/10/30 04:37:58;;;;;;;35.90;16.30;;;;;;;0.87;70.81;100207.69;112829;1199;24777;-57
2021/10/30 04:40:27;;;;;;;39.40;17.00;;;;;;;0.86;70.91;100205.34;112976;1199;22828;-54
2021/10/30 04:42:55;;;;;;;35.10;16.40;;;;;;;0.85;70.97;100205.67;112823;1192;25355;-54
2021/10/30 04:45:23;;;;;;;36.60;16.00;;;;;;;0.82;70.88;100210.80;112848;1199;25024;-53
2021/10/30 04:47:53;;;;;;;36.00;15.90;;;;;;;0.81;71.13;100214.27;112925;1199;22458;-53
2021/10/30 04:50:21;;;;;;;36.90;17.40;;;;;;;0.79;71.04;100208.66;112819;1199;24195;-53
2021/10/30 04:52:49;;;;;;;36.20;16.80;;;;;;;0.76;71.10;100205.87;112868;1199;24055;-56
2021/10/30 04:55:17;;;;;;;34.60;16.50;;;;;;;0.76;71.05;100203.36;112805;1192;24756;-52
2021/10/30 04:57:45;;;;;;;35.00;16.30;;;;;;;0.74;71.10;100199.00;112899;1193;22500;-53
2021/10/30 05:00:16;;;;;;;40.10;17.20;;;;;;;0.72;71.14;100199.89;113592;1199;24094;-54
2021/10/30 05:02:44;;;;;;;38.20;16.40;;;;;;;0.70;71.08;100198.02;112941;1199;25183;-53
2021/10/30 05:05:12;;;;;;;38.20;16.70;;;;;;;0.71;71.32;100200.13;112842;1199;25361;-53
2021/10/30 05:07:40;;;;;;;36.20;17.00;;;;;;;0.71;71.34;100201.78;112820;1199;22556;-53
2021/10/30 05:10:10;;;;;;;39.50;16.60;;;;;;;0.69;71.17;100200.23;112890;1199;25201;-56
2021/10/30 05:12:38;;;;;;;35.40;17.40;;;;;;;0.65;71.29;100196.05;113005;1199;22481;-55
2021/10/30 05:15:07;;;;;;;35.70;16.40;;;;;;;0.62;71.42;100192.23;112769;1199;22442;-53
2021/10/30 05:17:36;;;;;;;36.50;16.20;;;;;;;0.60;71.52;100194.71;113014;1199;24090;-53
2021/10/30 05:20:07;;;;;;;35.10;16.00;;;;;;;0.59;71.50;100190.40;112899;1192;22435;-53
2021/10/30 05:22:35;;;;;;;36.00;16.50;;;;;;;0.58;71.54;100187.91;112903;1199;22441;-55
2021/10/30 05:25:04;;;;;;;39.10;18.30;;;;;;;0.58;71.76;100187.52;112801;1184;24124;-56
2021/10/30 05:27:32;;;;;;;38.40;17.30;;;;;;;0.58;71.99;100186.02;112896;1199;22445;-56
2021/10/30 05:30:01;;;;;;;41.90;16.20;;;;;;;0.59;72.18;100187.17;112878;1199;24124;-53
2021/10/30 05:32:29;;;;;;;32.70;15.60;;;;;;;0.55;72.13;100195.57;113003;1199;22573;-55
2021/10/30 05:34:57;;;;;;;35.40;14.70;;;;;;;0.51;72.19;100188.53;112786;1199;24535;-55
2021/10/30 05:37:26;;;;;;;37.00;16.40;;;;;;;0.49;72.42;100190.15;112751;1199;22459;-59
2021/10/30 05:39:54;;;;;;;37.00;16.10;;;;;;;0.48;72.56;100184.82;113035;1199;22956;-53
2021/10/30 05:42:23;;;;;;;32.70;15.00;;;;;;;0.47;72.47;100193.31;113412;1199;22648;-57
2021/10/30 05:44:53;;;;;;;43.10;18.10;;;;;;;0.47;72.54;100186.56;113303;1199;22501;-56
2021/10/30 05:47:22;;;;;;;34.30;15.80;;;;;;;0.48;72.48;100195.24;112790;1199;26639;-54
2021/10/30 05:49:52;;;;;;;37.10;17.10;;;;;;;0.48;72.53;100194.61;112860;1199;25340;-56
2021/10/30 05:52:20;;;;;;;37.90;17.00;;;;;;;0.47;72.51;100200.21;112734;1199;25285;-56
2021/10/30 05:54:48;;;;;;;43.20;18.70;;;;;;;0.45;72.61;100201.27;112904;1199;24299;-57
2021/10/30 05:57:16;;;;;;;39.00;17.80;;;;;;;0.46;72.66;100204.61;112782;1199;22490;-54
2021/10/30 05:59:45;;;;;;;41.50;18.50;;;;;;;0.46;72.74;100199.36;112856;1199;22414;-54
2021/10/30 06:02:13;;;;;;;44.10;18.60;;;;;;;0.44;72.76;100198.91;113018;1199;22451;-56
2021/10/30 06:04:42;;;;;;;46.70;20.10;;;;;;;0.45;72.88;100203.92;112831;1184;22438;-55
2021/10/30 06:07:10;;;;;;;41.60;18.50;;;;;;;0.46;72.95;100204.15;113022;1192;22451;-55
2021/10/30 06:09:38;;;;;;;45.50;19.40;;;;;;;0.46;73.08;100206.83;112956;1198;22439;-55
2021/10/30 06:12:08;;;;;;;38.30;17.90;;;;;;;0.50;73.12;100207.23;112798;1192;22556;-57
2021/10/30 06:14:37;;;;;;;44.20;21.90;;;;;;;0.51;73.17;100203.05;112943;1193;24961;-55
2021/10/30 06:17:07;;;;;;;43.80;19.10;;;;;;;0.52;73.14;100200.07;112793;1199;22435;-55
2021/10/30 06:19:35;;;;;;;57.50;24.60;;;;;;;0.51;73.20;100199.61;112727;1192;22424;-56
2021/10/30 06:22:04;;;;;;;53.70;24.80;;;;;;;0.52;73.22;100206.34;112739;1192;22449;-55
2021/10/30 06:24:32;;;;;;;62.30;28.80;;;;;;;0.54;73.32;100204.98;112890;1184;24089;-55
2021/10/30 06:27:01;;;;;;;61.30;27.40;;;;;;;0.57;73.33;100201.34;112976;1199;25169;-54
2021/10/30 06:29:30;;;;;;;66.60;29.70;;;;;;;0.59;73.47;100202.89;112774;1192;25261;-56
2021/10/30 06:31:59;;;;;;;61.30;30.90;;;;;;;0.62;73.60;100200.96;112967;1184;22445;-56
2021/10/30 06:34:27;;;;;;;70.50;31.50;;;;;;;0.66;73.62;100195.41;112773;1199;22472;-55
2021/10/30 06:36:55;;;;;;;73.20;34.60;;;;;;;0.72;73.64;100193.13;112806;1192;22802;-57
2021/10/30 06:39:24;;;;;;;75.90;35.10;;;;;;;0.79;73.65;100199.45;113288;1198;23823;-57
2021/10/30 06:41:52;;;;;;;83.10;37.00;;;;;;;0.87;74.01;100203.20;113039;1199;25302;-60
2021/10/30 06:44:20;;;;;;;74.70;39.20;;;;;;;0.94;74.08;100209.70;112781;1199;24215;-58
2021/10/30 06:46:52;;;;;;;89.70;48.20;;;;;;;1.01;74.13;100205.42;112711;1184;25234;-59
2021/10/30 06:49:20;;;;;;;73.50;35.70;;;;;;;1.10;74.41;100211.52;112933;1192;22459;-58
2021/10/30 06:51:51;;;;;;;62.90;31.00;;;;;;;1.17;74.54;100214.08;112767;1199;22532;-58
2021/10/30 06:54:20;;;;;;;68.20;34.70;;;;;;;1.24;74.74;100214.84;112841;1199;22727;-60
2021/10/30 06:56:50;;;;;;;59.10;31.10;;;;;;;1.29;74.67;100208.55;112968;1176;24059;-59
2021/10/30 06:59:18;;;;;;;57.30;29.70;;;;;;;1.34;74.48;100203.34;113219;1191;25118;-59
2021/10/30 07:01:47;;;;;;;63.30;32.50;;;;;;;1.41;74.60;100199.70;113068;1199;25044;-60
2021/10/30 07:04:15;;;;;;;55.40;27.20;;;;;;;1.49;74.95;100198.07;112718;1192;22473;-58
2021/10/30 07:06:43;;;;;;;59.70;26.60;;;;;;;1.57;75.21;100199.49;112702;1199;22428;-59
2021/10/30 07:09:12;;;;;;;53.60;25.50;;;;;;;1.67;75.40;100194.92;112769;1199;25274;-57
2021/10/30 07:11:44;;;;;;;49.00;21.40;;;;;;;1.78;75.57;100187.90;113011;1192;24030;-59
2021/10/30 07:14:13;;;;;;;48.90;21.30;;;;;;;1.89;75.74;100187.53;112922;1199;22517;-56
2021/10/30 07:16:41;;;;;;;50.30;24.00;;;;;;;2.00;75.57;100186.95;113117;1192;22430;-59
2021/10/30 07:19:10;;;;;;;45.90;20.80;;;;;;;2.09;75.70;100189.98;112957;1199;22557;-59
2021/10/30 07:21:38;;;;;;;61.10;32.10;;;;;;;2.21;76.14;100182.42;116293;1199;22574;-60
2021/10/30 07:24:07;;;;;;;50.50;24.20;;;;;;;2.34;76.00;100182.25;113207;1199;22474;-60
2021/10/30 07:26:36;;;;;;;50.20;21.60;;;;;;;2.45;76.00;100179.11;113234;1199;24078;-58
2021/10/30 07:29:06;;;;;;;103.60;51.90;;;;;;;2.56;76.25;100181.86;112930;1199;22503;-60
2021/10/30 07:31:38;;;;;;;102.30;50.70;;;;;;;2.69;76.53;100180.48;112955;1199;23443;-60
2021/10/30 07:34:06;;;;;;;67.60;34.10;;;;;;;2.81;76.68;100179.34;113188;1199;22470;-60
2021/10/30 07:36:34;;;;;;;72.60;39.90;;;;;;;2.94;76.95;100175.35;113169;1187;24193;-59
2021/10/30 07:39:03;;;;;;;101.30;53.60;;;;;;;3.10;77.20;100170.33;113027;1192;25279;-56
2021/10/30 07:41:32;;;;;;;94.90;46.80;;;;;;;3.24;77.24;100168.80;113082;1199;22458;-57
2021/10/30 07:44:05;;;;;;;76.90;39.70;;;;;;;3.37;77.14;100169.45;113250;1199;24309;-58
2021/10/30 07:46:35;;;;;;;93.30;46.30;;;;;;;3.50;77.12;100169.71;112978;1193;24186;-58
2021/10/30 07:49:03;;;;;;;114.60;59.70;;;;;;;3.64;77.19;100170.23;112746;1199;22429;-59
2021/10/30 07:51:33;;;;;;;70.10;33.40;;;;;;;3.79;77.30;100169.92;112903;1198;26327;-60
2021/10/30 07:54:02;;;;;;;72.00;35.50;;;;;;;3.94;77.47;100170.61;113179;1192;25258;-60
2021/10/30 07:56:34;;;;;;;79.10;40.90;;;;;;;4.12;77.57;100167.38;113268;1192;22603;-59
2021/10/30 07:59:03;;;;;;;87.20;42.50;;;;;;;4.30;77.63;100164.34;113070;1192;22410;-59
2021/10/30 08:01:32;;;;;;;109.20;55.40;;;;;;;4.47;77.59;100165.48;113216;1199;24286;-60
2021/10/30 08:04:01;;;;;;;73.30;37.90;;;;;;;4.66;77.56;100165.16;113225;1199;25116;-59
2021/10/30 08:06:30;;;;;;;76.50;38.90;;;;;;;4.84;77.38;100159.64;112986;1198;25403;-59
2021/10/30 08:09:00;;;;;;;62.40;30.50;;;;;;;5.03;77.32;100160.70;113135;1199;22437;-60
2021/10/30 08:11:29;;;;;;;55.00;25.50;;;;;;;5.21;76.78;100161.39;113147;1192;22616;-59
2021/10/30 08:13:59;;;;;;;55.60;27.30;;;;;;;5.35;76.25;100154.38;113172;1192;24243;-60
2021/10/30 08:16:28;;;;;;;58.30;26.00;;;;;;;5.44;76.07;100152.33;113280;1198;22438;-59
2021/10/30 08:18:57;;;;;;;42.00;19.40;;;;;;;5.54;75.86;100152.54;113152;1193;22481;-60
2021/10/30 08:21:26;;;;;;;40.20;17.30;;;;;;;5.66;75.83;100149.83;113260;1199;22568;-59
2021/10/30 08:23:55;;;;;;;35.10;17.00;;;;;;;5.82;75.84;100147.56;113141;1192;22441;-58
2021/10/30 08:26:25;;;;;;;32.70;12.80;;;;;;;5.99;75.72;100141.52;113124;1199;22430;-59
2021/10/30 08:28:54;;;;;;;30.90;14.00;;;;;;;6.20;75.55;100141.63;113081;1186;22733;-58
2021/10/30 08:31:23;;;;;;;26.90;12.50;;;;;;;6.37;75.25;100137.59;113113;1199;22448;-59
2021/10/30 08:33:52;;;;;;;30.90;13.00;;;;;;;6.56;75.21;100135.10;113211;1199;22459;-59
2021/10/30 08:36:21;;;;;;;26.90;11.50;;;;;;;6.77;75.22;100134.63;113312;1199;25457;-59
2021/10/30 08:38:51;;;;;;;22.30;10.90;;;;;;;6.94;74.83;100130.77;113310;1199;22630;-60
2021/10/30 08:41:20;;;;;;;25.90;10.80;;;;;;;7.08;74.44;100126.30;113208;1199;22557;-60
2021/10/30 08:43:50;;;;;;;24.50;10.50;;;;;;;7.27;74.39;100128.88;113188;1199;22572;-62
2021/10/30 08:46:19;;;;;;;21.60;9.90;;;;;;;7.46;74.02;100120.55;113347;1199;25143;-62
2021/10/30 08:48:50;;;;;;;28.80;11.70;;;;;;;7.64;73.77;100118.48;113254;1199;22437;-60
2021/10/30 08:51:20;;;;;;;34.00;14.30;;;;;;;7.81;73.42;100117.59;113198;1199;22525;-62
2021/10/30 08:53:49;;;;;;;27.40;11.50;;;;;;;7.93;73.09;100122.00;113237;1199;23927;-61
2021/10/30 08:56:19;;;;;;;24.80;9.90;;;;;;;8.02;72.91;100116.25;113150;1199;25164;-63
2021/10/30 08:58:47;;;;;;;21.30;8.80;;;;;;;8.16;72.75;100108.08;113174;1199;22417;-62
2021/10/30 09:01:17;;;;;;;25.90;9.90;;;;;;;8.31;72.26;100110.21;113170;1198;22558;-62
2021/10/30 09:03:57;;;;;;;19.40;7.40;;;;;;;8.45;71.95;100112.59;113371;1199;23133;-62
2021/10/30 09:06:43;;;;;;;19.10;6.80;;;;;;;8.60;71.66;100109.42;115571;1199;22424;-61
2021/10/30 09:09:17;;;;;;;25.70;7.80;;;;;;;8.78;71.37;100102.04;113517;1193;24054;-62
2021/10/30 09:11:56;;;;;;;24.40;9.00;;;;;;;8.92;71.08;100098.77;113450;1199;22458;-61
2021/10/30 09:14:28;;;;;;;24.00;8.90;;;;;;;8.98;70.72;100100.83;113298;1199;25332;-62
2021/10/30 09:17:17;;;;;;;18.10;7.00;;;;;;;9.09;70.42;100101.05;113218;1192;25339;-62
2021/10/30 09:19:49;;;;;;;23.90;8.50;;;;;;;9.25;70.22;100097.77;113398;1199;22458;-61
2021/10/30 09:22:21;;;;;;;25.30;9.60;;;;;;;9.39;70.09;100095.50;113123;1192;22498;-63
2021/10/30 09:25:01;;;;;;;24.80;9.60;;;;;;;9.47;69.65;100086.23;113259;1199;24034;-61
2021/10/30 09:27:53;;;;;;;22.20;8.70;;;;;;;9.56;69.56;100084.82;113393;1199;22417;-61
2021/10/30 09:30:25;;;;;;;24.10;8.80;;;;;;;9.70;69.23;100076.67;113185;1196;27159;-61
2021/10/30 09:33:03;;;;;;;26.20;10.70;;;;;;;9.76;68.82;100069.04;113194;1199;25196;-62
2021/10/30 09:35:41;;;;;;;21.70;9.00;;;;;;;9.86;68.56;100075.21;113223;1199;22442;-61
2021/10/30 09:38:12;;;;;;;24.90;8.80;;;;;;;9.93;68.31;100078.54;113178;1199;25068;-61
2021/10/30 09:40:42;;;;;;;23.90;7.40;;;;;;;10.00;68.07;100074.31;113222;1199;25066;-61
2021/10/30 09:43:20;;;;;;;22.50;8.30;;;;;;;10.11;67.93;100071.59;113317;1199;22445;-62
2021/10/30 09:45:52;;;;;;;23.90;7.90;;;;;;;10.22;67.54;100068.70;113251;1199;24284;-62
2021/10/30 09:48:24;;;;;;;22.10;8.20;;;;;;;10.29;67.45;100061.42;113319;1199;22428;-67
2021/10/30 09:50:55;;;;;;;23.60;8.10;;;;;;;10.40;67.44;100057.15;113272;1187;22470;-60
2021/10/30 09:53:27;;;;;;;26.30;9.30;;;;;;;10.50;67.22;100058.21;113188;1199;24044;-66
2021/10/30 09:55:56;;;;;;;24.00;7.60;;;;;;;10.56;66.86;100049.74;113173;1194;25182;-61
2021/10/30 09:58:32;;;;;;;17.60;6.60;;;;;;;10.68;66.74;100044.14;113281;1199;22418;-62
2021/10/30 10:01:04;;;;;;;20.50;7.40;;;;;;;10.79;66.55;100043.50;113274;1199;22482;-60
2021/10/30 10:03:34;;;;;;;19.50;6.20;;;;;;;10.93;66.18;100038.63;113206;1199;22422;-61
2021/10/30 10:06:09;;;;;;;19.90;7.90;;;;;;;11.04;65.94;100033.75;113247;1199;22439;-63
2021/10/30 10:08:41;;;;;;;20.20;6.80;;;;;;;11.11;65.88;100029.43;113232;1199;22416;-60
2021/10/30 10:11:12;;;;;;;17.00;6.60;;;;;;;11.22;65.70;100027.90;113186;1199;22438;-60
2021/10/30 10:13:40;;;;;;;;;;;;;;;11.30;65.53;100021.66;113175;1199;22416;-60
2021/10/30 10:16:12;;;;;;;19.20;6.80;;;;;;;11.41;65.23;100019.50;112964;1199;22499;-60
2021/10/30 10:18:41;;;;;;;16.40;6.60;;;;;;;11.53;64.72;100013.40;112813;1199;26365;-60
2021/10/30 10:21:12;;;;;;;22.20;7.00;;;;;;;11.68;64.70;100005.29;113099;1199;25256;-60
2021/10/30 10:23:43;;;;;;;20.90;7.10;;;;;;;11.80;64.24;100000.55;112761;1200;23688;-60
2021/10/30 10:26:13;;;;;;;19.40;6.00;;;;;;;11.89;63.87;99996.05;113063;1198;24547;-59
2021/10/30 10:28:41;;;;;;;22.80;7.70;;;;;;;11.97;63.50;99986.58;113235;1193;22535;-60
2021/10/30 10:31:16;;;;;;;16.80;5.10;;;;;;;12.14;63.39;99984.23;112921;1199;22804;-59
2021/10/30 10:33:44;;;;;;;20.10;6.30;;;;;;;12.30;63.13;99981.91;112855;1199;22451;-61
2021/10/30 10:36:24;;;;;;;16.60;5.90;;;;;;;12.44;62.74;99970.51;112723;1198;22407;-59
2021/10/30 10:39:16;;;;;;;17.10;6.20;;;;;;;12.56;62.56;99963.64;112885;1192;25261;-58
2021/10/30 10:41:57;;;;;;;17.00;5.60;;;;;;;12.67;62.11;99958.55;113060;1194;22877;-59
2021/10/30 10:44:57;;;;;;;17.20;5.90;;;;;;;12.84;61.88;99955.90;112891;1192;25426;-59
2021/10/30 10:48:05;;;;;;;20.00;7.50;;;;;;;12.97;61.30;99950.87;112707;1193;22566;-60
2021/10/30 10:50:50;;;;;;;14.80;4.80;;;;;;;13.05;61.08;99941.55;112555;1196;23770;-60
2021/10/30 10:53:25;;;;;;;16.80;5.40;;;;;;;13.10;60.67;99938.02;112441;1195;24438;-64
2021/10/30 10:56:20;;;;;;;18.70;5.10;;;;;;;13.16;60.38;99927.59;112680;1202;24129;-60
2021/10/30 10:59:15;;;;;;;14.60;4.30;;;;;;;13.31;59.90;99927.18;112347;1195;24855;-60
2021/10/30 11:02:21;;;;;;;14.80;4.40;;;;;;;13.47;59.36;99918.41;112635;1196;24074;-60
2021/10/30 11:05:23;;;;;;;16.40;4.60;;;;;;;13.62;58.37;99919.09;112477;1196;25328;-60
2021/10/30 11:08:16;;;;;;;11.60;4.10;;;;;;;13.80;58.09;99922.42;112614;1201;22456;-59
2021/10/30 11:10:44;;;;;;;14.50;5.10;;;;;;;13.90;57.70;99914.22;112625;1197;22486;-62
2021/10/30 11:13:17;;;;;;;15.90;4.90;;;;;;;13.96;57.54;99908.25;112576;1202;22548;-62
2021/10/30 11:15:48;;;;;;;13.30;4.60;;;;;;;14.05;57.39;99909.02;112469;1197;25029;-60
2021/10/30 11:18:20;;;;;;;;;;;;;;;14.08;57.04;99907.17;112631;1196;24288;-60
2021/10/30 11:21:04;;;;;;;13.10;4.30;;;;;;;14.17;56.72;99903.60;112812;1195;22566;-62
2021/10/30 11:23:41;;;;;;;12.20;4.10;;;;;;;14.27;56.34;99897.98;112553;1197;22425;-59
2021/10/30 11:26:10;;;;;;;17.00;5.50;;;;;;;14.40;55.84;99890.21;112453;1202;22867;-72